Skip Navigation

Christman Field Latest Observations

Switch to english unitsOther observation timesWeekly graphs

Date Time
MST
Temp
°C
RH
%
DewPt
°C
Wind
m/s
Dir
°
Gust
m/s
Dir
°
Press
hPa
Solar
W/m^2
Prec
mm
2018-10-21 18:00 16.4 29.0 -1.7 1.1 234 1.6 231 844.03 0.2 0.00
2018-10-21 17:55 16.6 28.6 -1.7 1.2 191 1.7 208 844.01 0.1 0.00
2018-10-21 17:50 16.4 29.6 -1.4 1.4 206 1.9 211 843.95 0.1 0.00
2018-10-21 17:45 17.1 29.7 -0.7 1.5 207 2.0 195 843.93 0.2 0.00
2018-10-21 17:40 17.6 27.9 -1.2 1.6 199 2.0 198 843.90 0.2 0.00
2018-10-21 17:35 17.9 27.0 -1.3 1.7 194 2.1 189 843.87 0.2 0.00
2018-10-21 17:30 17.9 26.4 -1.7 1.7 192 2.5 207 843.84 0.5 0.00
2018-10-21 17:25 17.9 26.9 -1.4 2.1 204 2.7 203 843.73 1.2 0.00
2018-10-21 17:20 18.1 26.5 -1.4 2.2 200 2.8 192 843.68 2.3 0.00
2018-10-21 17:15 18.2 26.0 -1.6 2.6 195 3.5 193 843.65 3.8 0.00
2018-10-21 17:10 18.2 26.4 -1.4 2.5 189 3.1 187 843.55 5.5 0.00
2018-10-21 17:05 18.1 26.6 -1.4 2.4 200 2.9 199 843.45 7.3 0.00
2018-10-21 17:00 18.2 27.1 -1.0 2.3 204 2.7 196 843.39 9.3 0.00
2018-10-21 16:55 18.6 26.9 -0.8 2.1 195 2.4 197 843.35 11.3 0.00
2018-10-21 16:50 19.1 26.1 -0.8 1.9 201 2.3 198 843.34 13.4 0.00
2018-10-21 16:45 19.7 24.8 -1.0 1.7 197 2.0 201 843.33 16.7 0.00
2018-10-21 16:40 20.2 23.7 -1.2 1.7 203 2.0 193 843.31 61.7 0.00
2018-10-21 16:35 20.3 22.6 -1.7 1.9 197 2.4 188 843.28 66.5 0.00
2018-10-21 16:30 21.0 21.9 -1.6 2.0 190 2.8 201 843.24 21.1 0.00
2018-10-21 16:25 22.1 19.8 -2.0 1.9 183 2.9 155 843.15 57.0 0.00
2018-10-21 16:20 22.5 18.6 -2.5 2.4 163 3.0 167 843.13 127.0 0.00
2018-10-21 16:15 22.7 18.6 -2.5 2.6 171 3.4 156 843.07 145.5 0.00
2018-10-21 16:10 22.9 18.3 -2.5 2.4 175 3.6 177 843.10 159.2 0.00
2018-10-21 16:05 23.0 17.8 -2.7 2.6 170 3.6 186 843.10 172.6 0.00
2018-10-21 16:00 23.1 17.7 -2.7 2.5 168 3.6 191 843.07 186.4 0.00
2018-10-21 15:55 23.1 18.1 -2.4 2.7 206 3.5 162 843.02 200.5 0.00
2018-10-21 15:50 23.5 17.0 -3.0 2.5 168 3.4 168 843.05 214.2 0.00
2018-10-21 15:45 23.6 17.4 -2.6 1.6 149 3.4 156 843.12 228.7 0.00
2018-10-21 15:40 23.5 17.4 -2.6 2.3 132 3.3 191 843.24 242.9 0.00
2018-10-21 15:35 23.6 17.8 -2.3 2.3 156 3.7 167 843.26 257.0 0.00